sensor_id;sensor_type;location;lat;lon;timestamp;P1;durP1;ratioP1;P2;durP2;ratioP2
32200;SDS011;18701;45.588;5.288;2023-05-29T00:00:26;6.13;;;2.47;;
32200;SDS011;18701;45.588;5.288;2023-05-29T00:02:52;4.28;;;2.50;;
32200;SDS011;18701;45.588;5.288;2023-05-29T00:05:18;5.07;;;2.78;;
32200;SDS011;18701;45.588;5.288;2023-05-29T00:07:43;8.35;;;2.90;;
32200;SDS011;18701;45.588;5.288;2023-05-29T00:10:09;8.70;;;2.50;;
32200;SDS011;18701;45.588;5.288;2023-05-29T00:12:37;8.48;;;3.13;;
32200;SDS011;18701;45.588;5.288;2023-05-29T00:15:03;6.75;;;2.80;;
32200;SDS011;18701;45.588;5.288;2023-05-29T00:17:30;5.00;;;2.15;;
32200;SDS011;18701;45.588;5.288;2023-05-29T00:19:59;16.27;;;3.13;;
32200;SDS011;18701;45.588;5.288;2023-05-29T00:22:26;5.82;;;2.55;;
32200;SDS011;18701;45.588;5.288;2023-05-29T00:24:52;7.07;;;2.53;;
32200;SDS011;18701;45.588;5.288;2023-05-29T00:27:18;5.65;;;2.60;;
32200;SDS011;18701;45.588;5.288;2023-05-29T00:29:43;7.78;;;2.80;;
32200;SDS011;18701;45.588;5.288;2023-05-29T00:32:10;9.05;;;2.00;;
32200;SDS011;18701;45.588;5.288;2023-05-29T00:34:35;5.90;;;2.83;;
32200;SDS011;18701;45.588;5.288;2023-05-29T00:37:01;7.75;;;2.63;;
32200;SDS011;18701;45.588;5.288;2023-05-29T00:39:27;7.65;;;2.30;;
32200;SDS011;18701;45.588;5.288;2023-05-29T00:41:53;5.18;;;2.83;;
32200;SDS011;18701;45.588;5.288;2023-05-29T00:44:19;12.95;;;2.53;;
32200;SDS011;18701;45.588;5.288;2023-05-29T00:46:46;5.20;;;2.42;;
32200;SDS011;18701;45.588;5.288;2023-05-29T00:49:12;6.72;;;2.28;;
32200;SDS011;18701;45.588;5.288;2023-05-29T00:51:39;5.53;;;2.65;;
32200;SDS011;18701;45.588;5.288;2023-05-29T00:54:07;7.90;;;2.58;;
32200;SDS011;18701;45.588;5.288;2023-05-29T00:56:36;5.45;;;2.45;;
32200;SDS011;18701;45.588;5.288;2023-05-29T00:59:03;5.07;;;2.47;;
32200;SDS011;18701;45.588;5.288;2023-05-29T01:01:30;4.97;;;2.40;;
32200;SDS011;18701;45.588;5.288;2023-05-29T01:03:57;6.85;;;2.17;;
32200;SDS011;18701;45.588;5.288;2023-05-29T01:06:25;4.53;;;2.70;;
32200;SDS011;18701;45.588;5.288;2023-05-29T01:08:51;7.95;;;3.17;;
32200;SDS011;18701;45.588;5.288;2023-05-29T01:14:03;5.95;;;2.50;;
32200;SDS011;18701;45.588;5.288;2023-05-29T01:25:11;5.38;;;2.47;;
32200;SDS011;18701;45.588;5.288;2023-05-29T01:27:46;4.90;;;2.35;;
32200;SDS011;18701;45.588;5.288;2023-05-29T01:30:13;6.55;;;2.17;;
32200;SDS011;18701;45.588;5.288;2023-05-29T01:32:40;6.63;;;2.50;;
32200;SDS011;18701;45.588;5.288;2023-05-29T01:35:07;4.82;;;2.70;;
32200;SDS011;18701;45.588;5.288;2023-05-29T01:37:33;4.65;;;2.33;;
32200;SDS011;18701;45.588;5.288;2023-05-29T01:39:59;5.68;;;2.78;;
32200;SDS011;18701;45.588;5.288;2023-05-29T01:42:26;8.23;;;3.03;;
32200;SDS011;18701;45.588;5.288;2023-05-29T01:44:54;4.95;;;2.50;;
32200;SDS011;18701;45.588;5.288;2023-05-29T01:47:21;6.88;;;2.10;;
32200;SDS011;18701;45.588;5.288;2023-05-29T01:49:47;5.82;;;2.38;;
32200;SDS011;18701;45.588;5.288;2023-05-29T01:52:16;8.00;;;2.60;;
32200;SDS011;18701;45.588;5.288;2023-05-29T01:54:42;6.93;;;2.38;;
32200;SDS011;18701;45.588;5.288;2023-05-29T01:57:08;9.25;;;2.60;;
32200;SDS011;18701;45.588;5.288;2023-05-29T01:59:35;7.47;;;2.60;;
32200;SDS011;18701;45.588;5.288;2023-05-29T02:02:05;3.67;;;2.28;;
32200;SDS011;18701;45.588;5.288;2023-05-29T02:04:35;8.45;;;2.72;;
32200;SDS011;18701;45.588;5.288;2023-05-29T02:07:00;8.98;;;2.50;;
32200;SDS011;18701;45.588;5.288;2023-05-29T02:09:26;10.20;;;2.47;;
32200;SDS011;18701;45.588;5.288;2023-05-29T02:11:52;8.82;;;2.60;;
32200;SDS011;18701;45.588;5.288;2023-05-29T02:14:18;6.53;;;2.78;;
32200;SDS011;18701;45.588;5.288;2023-05-29T02:16:43;4.80;;;2.25;;
32200;SDS011;18701;45.588;5.288;2023-05-29T02:19:10;9.90;;;2.72;;
32200;SDS011;18701;45.588;5.288;2023-05-29T02:21:38;5.88;;;2.80;;
32200;SDS011;18701;45.588;5.288;2023-05-29T02:24:05;4.88;;;2.72;;
32200;SDS011;18701;45.588;5.288;2023-05-29T02:26:32;4.82;;;2.70;;
32200;SDS011;18701;45.588;5.288;2023-05-29T02:28:57;4.28;;;3.00;;
32200;SDS011;18701;45.588;5.288;2023-05-29T02:31:23;9.07;;;2.55;;
32200;SDS011;18701;45.588;5.288;2023-05-29T02:33:49;13.50;;;3.85;;
32200;SDS011;18701;45.588;5.288;2023-05-29T02:36:14;6.22;;;2.42;;
32200;SDS011;18701;45.588;5.288;2023-05-29T02:38:41;4.30;;;2.55;;
32200;SDS011;18701;45.588;5.288;2023-05-29T02:41:06;4.45;;;2.63;;
32200;SDS011;18701;45.588;5.288;2023-05-29T02:43:32;5.07;;;3.00;;
32200;SDS011;18701;45.588;5.288;2023-05-29T02:45:58;6.13;;;2.55;;
32200;SDS011;18701;45.588;5.288;2023-05-29T02:48:23;5.57;;;2.85;;
32200;SDS011;18701;45.588;5.288;2023-05-29T02:50:50;4.20;;;2.70;;
32200;SDS011;18701;45.588;5.288;2023-05-29T02:53:16;6.93;;;2.50;;
32200;SDS011;18701;45.588;5.288;2023-05-29T02:55:42;9.93;;;2.60;;
32200;SDS011;18701;45.588;5.288;2023-05-29T02:58:07;7.22;;;2.60;;
32200;SDS011;18701;45.588;5.288;2023-05-29T03:00:33;7.60;;;3.00;;
32200;SDS011;18701;45.588;5.288;2023-05-29T03:02:59;6.22;;;2.80;;
32200;SDS011;18701;45.588;5.288;2023-05-29T03:05:25;11.05;;;2.50;;
32200;SDS011;18701;45.588;5.288;2023-05-29T03:07:51;7.25;;;2.58;;
32200;SDS011;18701;45.588;5.288;2023-05-29T03:10:16;7.57;;;2.53;;
32200;SDS011;18701;45.588;5.288;2023-05-29T03:12:42;6.60;;;2.78;;
32200;SDS011;18701;45.588;5.288;2023-05-29T03:15:09;4.72;;;2.65;;
32200;SDS011;18701;45.588;5.288;2023-05-29T03:17:35;5.88;;;2.50;;
32200;SDS011;18701;45.588;5.288;2023-05-29T03:20:02;6.50;;;2.20;;
32200;SDS011;18701;45.588;5.288;2023-05-29T03:22:30;5.78;;;2.80;;
32200;SDS011;18701;45.588;5.288;2023-05-29T03:24:57;5.15;;;2.95;;
32200;SDS011;18701;45.588;5.288;2023-05-29T03:27:23;6.53;;;3.40;;
32200;SDS011;18701;45.588;5.288;2023-05-29T03:29:48;7.03;;;2.75;;
32200;SDS011;18701;45.588;5.288;2023-05-29T03:32:14;6.65;;;2.83;;
32200;SDS011;18701;45.588;5.288;2023-05-29T03:34:39;3.78;;;2.40;;
32200;SDS011;18701;45.588;5.288;2023-05-29T03:37:05;8.05;;;2.50;;
32200;SDS011;18701;45.588;5.288;2023-05-29T03:39:31;4.88;;;2.50;;
32200;SDS011;18701;45.588;5.288;2023-05-29T03:41:56;3.97;;;2.72;;
32200;SDS011;18701;45.588;5.288;2023-05-29T03:44:22;4.68;;;2.20;;
32200;SDS011;18701;45.588;5.288;2023-05-29T03:46:48;9.65;;;3.28;;
32200;SDS011;18701;45.588;5.288;2023-05-29T03:49:15;6.53;;;2.63;;
32200;SDS011;18701;45.588;5.288;2023-05-29T03:51:40;7.30;;;2.78;;
32200;SDS011;18701;45.588;5.288;2023-05-29T03:54:06;4.80;;;2.88;;
32200;SDS011;18701;45.588;5.288;2023-05-29T03:56:31;6.32;;;2.75;;
32200;SDS011;18701;45.588;5.288;2023-05-29T03:58:57;9.70;;;3.20;;
32200;SDS011;18701;45.588;5.288;2023-05-29T04:01:23;5.88;;;2.40;;
32200;SDS011;18701;45.588;5.288;2023-05-29T04:03:49;4.80;;;2.70;;
32200;SDS011;18701;45.588;5.288;2023-05-29T04:06:14;5.93;;;2.67;;
32200;SDS011;18701;45.588;5.288;2023-05-29T04:08:41;7.75;;;2.90;;
32200;SDS011;18701;45.588;5.288;2023-05-29T04:11:06;6.15;;;2.85;;
32200;SDS011;18701;45.588;5.288;2023-05-29T04:13:32;8.95;;;3.08;;
32200;SDS011;18701;45.588;5.288;2023-05-29T04:15:58;7.28;;;2.78;;
32200;SDS011;18701;45.588;5.288;2023-05-29T04:18:24;10.68;;;2.60;;
32200;SDS011;18701;45.588;5.288;2023-05-29T04:20:50;7.97;;;2.60;;
32200;SDS011;18701;45.588;5.288;2023-05-29T04:23:16;3.58;;;2.60;;
32200;SDS011;18701;45.588;5.288;2023-05-29T04:25:41;4.82;;;2.70;;
32200;SDS011;18701;45.588;5.288;2023-05-29T04:28:08;4.97;;;2.58;;
32200;SDS011;18701;45.588;5.288;2023-05-29T04:30:35;6.57;;;2.58;;
32200;SDS011;18701;45.588;5.288;2023-05-29T04:33:01;6.05;;;2.90;;
32200;SDS011;18701;45.588;5.288;2023-05-29T04:35:28;3.58;;;2.30;;
32200;SDS011;18701;45.588;5.288;2023-05-29T04:37:54;10.50;;;3.30;;
32200;SDS011;18701;45.588;5.288;2023-05-29T04:40:21;4.85;;;2.65;;
32200;SDS011;18701;45.588;5.288;2023-05-29T04:42:47;6.47;;;2.78;;
32200;SDS011;18701;45.588;5.288;2023-05-29T04:45:13;8.32;;;3.13;;
32200;SDS011;18701;45.588;5.288;2023-05-29T04:47:39;7.88;;;2.83;;
32200;SDS011;18701;45.588;5.288;2023-05-29T04:50:09;7.50;;;3.53;;
32200;SDS011;18701;45.588;5.288;2023-05-29T04:52:36;5.63;;;3.22;;
32200;SDS011;18701;45.588;5.288;2023-05-29T04:55:02;7.07;;;2.63;;
32200;SDS011;18701;45.588;5.288;2023-05-29T04:57:28;8.23;;;2.53;;
32200;SDS011;18701;45.588;5.288;2023-05-29T04:59:54;6.25;;;2.58;;
32200;SDS011;18701;45.588;5.288;2023-05-29T05:02:19;7.32;;;3.17;;
32200;SDS011;18701;45.588;5.288;2023-05-29T05:04:45;6.20;;;2.33;;
32200;SDS011;18701;45.588;5.288;2023-05-29T05:07:11;7.43;;;3.58;;
32200;SDS011;18701;45.588;5.288;2023-05-29T05:09:37;6.20;;;2.55;;
32200;SDS011;18701;45.588;5.288;2023-05-29T05:12:02;6.03;;;2.35;;
32200;SDS011;18701;45.588;5.288;2023-05-29T05:14:28;7.05;;;2.47;;
32200;SDS011;18701;45.588;5.288;2023-05-29T05:16:54;5.97;;;2.97;;
32200;SDS011;18701;45.588;5.288;2023-05-29T05:19:20;11.07;;;3.25;;
32200;SDS011;18701;45.588;5.288;2023-05-29T05:21:45;5.53;;;2.55;;
32200;SDS011;18701;45.588;5.288;2023-05-29T05:24:11;8.07;;;3.00;;
32200;SDS011;18701;45.588;5.288;2023-05-29T05:26:37;5.93;;;3.03;;
32200;SDS011;18701;45.588;5.288;2023-05-29T05:29:02;5.57;;;3.00;;
32200;SDS011;18701;45.588;5.288;2023-05-29T05:31:28;7.53;;;2.97;;
32200;SDS011;18701;45.588;5.288;2023-05-29T05:33:53;8.48;;;3.50;;
32200;SDS011;18701;45.588;5.288;2023-05-29T05:36:19;5.97;;;2.83;;
32200;SDS011;18701;45.588;5.288;2023-05-29T05:38:45;11.45;;;3.40;;
32200;SDS011;18701;45.588;5.288;2023-05-29T05:41:10;6.78;;;3.10;;
32200;SDS011;18701;45.588;5.288;2023-05-29T05:43:36;7.95;;;3.03;;
32200;SDS011;18701;45.588;5.288;2023-05-29T05:46:02;7.82;;;3.00;;
32200;SDS011;18701;45.588;5.288;2023-05-29T05:48:27;7.57;;;3.38;;
32200;SDS011;18701;45.588;5.288;2023-05-29T05:50:53;6.22;;;3.35;;
32200;SDS011;18701;45.588;5.288;2023-05-29T05:53:18;4.30;;;3.13;;
32200;SDS011;18701;45.588;5.288;2023-05-29T05:55:45;5.18;;;3.28;;
32200;SDS011;18701;45.588;5.288;2023-05-29T05:58:11;5.10;;;3.08;;
32200;SDS011;18701;45.588;5.288;2023-05-29T06:00:37;9.27;;;3.65;;
32200;SDS011;18701;45.588;5.288;2023-05-29T06:03:04;5.60;;;2.80;;
32200;SDS011;18701;45.588;5.288;2023-05-29T06:05:30;4.88;;;3.35;;
32200;SDS011;18701;45.588;5.288;2023-05-29T06:07:56;6.43;;;3.20;;
32200;SDS011;18701;45.588;5.288;2023-05-29T06:10:21;5.20;;;3.10;;
32200;SDS011;18701;45.588;5.288;2023-05-29T06:12:47;7.30;;;3.05;;
32200;SDS011;18701;45.588;5.288;2023-05-29T06:15:13;6.65;;;2.95;;
32200;SDS011;18701;45.588;5.288;2023-05-29T06:17:39;7.70;;;3.22;;
32200;SDS011;18701;45.588;5.288;2023-05-29T06:20:05;5.15;;;3.25;;
32200;SDS011;18701;45.588;5.288;2023-05-29T06:22:35;8.82;;;3.88;;
32200;SDS011;18701;45.588;5.288;2023-05-29T06:25:01;11.93;;;3.97;;
32200;SDS011;18701;45.588;5.288;2023-05-29T06:27:27;7.43;;;3.50;;
32200;SDS011;18701;45.588;5.288;2023-05-29T06:29:53;7.75;;;3.58;;
32200;SDS011;18701;45.588;5.288;2023-05-29T06:32:18;7.43;;;3.42;;
32200;SDS011;18701;45.588;5.288;2023-05-29T06:34:44;10.48;;;3.78;;
32200;SDS011;18701;45.588;5.288;2023-05-29T06:37:09;8.40;;;3.90;;
32200;SDS011;18701;45.588;5.288;2023-05-29T06:39:37;6.45;;;3.90;;
32200;SDS011;18701;45.588;5.288;2023-05-29T06:42:06;14.45;;;4.00;;
32200;SDS011;18701;45.588;5.288;2023-05-29T06:44:33;10.23;;;3.75;;
32200;SDS011;18701;45.588;5.288;2023-05-29T06:46:58;8.57;;;3.85;;
32200;SDS011;18701;45.588;5.288;2023-05-29T06:49:24;9.13;;;4.10;;
32200;SDS011;18701;45.588;5.288;2023-05-29T06:51:50;11.07;;;4.63;;
32200;SDS011;18701;45.588;5.288;2023-05-29T06:54:16;4.72;;;3.42;;
32200;SDS011;18701;45.588;5.288;2023-05-29T06:56:41;14.23;;;3.78;;
32200;SDS011;18701;45.588;5.288;2023-05-29T06:59:07;10.25;;;3.88;;
32200;SDS011;18701;45.588;5.288;2023-05-29T07:01:33;16.60;;;4.60;;
32200;SDS011;18701;45.588;5.288;2023-05-29T07:03:58;5.97;;;3.45;;
32200;SDS011;18701;45.588;5.288;2023-05-29T07:06:24;8.35;;;4.22;;
32200;SDS011;18701;45.588;5.288;2023-05-29T07:08:50;11.48;;;3.95;;
32200;SDS011;18701;45.588;5.288;2023-05-29T07:11:15;7.20;;;3.72;;
32200;SDS011;18701;45.588;5.288;2023-05-29T07:13:41;5.25;;;3.60;;
32200;SDS011;18701;45.588;5.288;2023-05-29T07:16:06;11.65;;;3.30;;
32200;SDS011;18701;45.588;5.288;2023-05-29T07:18:32;5.72;;;3.38;;
32200;SDS011;18701;45.588;5.288;2023-05-29T07:20:59;5.80;;;3.28;;
32200;SDS011;18701;45.588;5.288;2023-05-29T07:23:25;5.43;;;3.70;;
32200;SDS011;18701;45.588;5.288;2023-05-29T07:25:51;5.85;;;3.40;;
32200;SDS011;18701;45.588;5.288;2023-05-29T07:28:17;7.78;;;3.53;;
32200;SDS011;18701;45.588;5.288;2023-05-29T07:30:42;5.80;;;3.58;;
32200;SDS011;18701;45.588;5.288;2023-05-29T07:33:08;8.98;;;4.00;;
32200;SDS011;18701;45.588;5.288;2023-05-29T07:35:33;5.88;;;3.88;;
32200;SDS011;18701;45.588;5.288;2023-05-29T07:37:59;8.30;;;3.75;;
32200;SDS011;18701;45.588;5.288;2023-05-29T07:40:25;5.45;;;3.58;;
32200;SDS011;18701;45.588;5.288;2023-05-29T07:42:51;11.68;;;3.60;;
32200;SDS011;18701;45.588;5.288;2023-05-29T07:45:17;12.65;;;4.18;;
32200;SDS011;18701;45.588;5.288;2023-05-29T07:47:42;9.30;;;4.47;;
32200;SDS011;18701;45.588;5.288;2023-05-29T07:50:08;5.28;;;3.40;;
32200;SDS011;18701;45.588;5.288;2023-05-29T07:52:35;9.57;;;3.63;;
32200;SDS011;18701;45.588;5.288;2023-05-29T07:55:01;10.15;;;4.20;;
32200;SDS011;18701;45.588;5.288;2023-05-29T07:57:27;9.70;;;4.13;;
32200;SDS011;18701;45.588;5.288;2023-05-29T07:59:53;8.35;;;3.90;;
32200;SDS011;18701;45.588;5.288;2023-05-29T08:02:18;4.90;;;3.83;;
32200;SDS011;18701;45.588;5.288;2023-05-29T08:04:44;8.40;;;3.75;;
32200;SDS011;18701;45.588;5.288;2023-05-29T08:07:11;5.28;;;3.55;;
32200;SDS011;18701;45.588;5.288;2023-05-29T08:09:37;10.85;;;4.18;;
32200;SDS011;18701;45.588;5.288;2023-05-29T08:12:02;8.07;;;3.85;;
32200;SDS011;18701;45.588;5.288;2023-05-29T08:14:28;11.70;;;4.57;;
32200;SDS011;18701;45.588;5.288;2023-05-29T08:16:54;5.25;;;3.35;;
32200;SDS011;18701;45.588;5.288;2023-05-29T08:19:19;8.60;;;3.97;;
32200;SDS011;18701;45.588;5.288;2023-05-29T08:21:45;8.15;;;3.92;;
32200;SDS011;18701;45.588;5.288;2023-05-29T08:24:11;9.77;;;4.00;;
32200;SDS011;18701;45.588;5.288;2023-05-29T08:26:36;10.13;;;3.67;;
32200;SDS011;18701;45.588;5.288;2023-05-29T08:29:02;6.43;;;3.90;;
32200;SDS011;18701;45.588;5.288;2023-05-29T08:31:29;9.00;;;4.32;;
32200;SDS011;18701;45.588;5.288;2023-05-29T08:33:55;13.85;;;3.80;;
32200;SDS011;18701;45.588;5.288;2023-05-29T08:36:21;8.27;;;4.20;;
32200;SDS011;18701;45.588;5.288;2023-05-29T08:38:47;11.38;;;3.50;;
32200;SDS011;18701;45.588;5.288;2023-05-29T08:41:36;11.35;;;3.72;;
32200;SDS011;18701;45.588;5.288;2023-05-29T08:44:08;5.35;;;3.30;;
32200;SDS011;18701;45.588;5.288;2023-05-29T08:46:38;12.63;;;4.10;;
32200;SDS011;18701;45.588;5.288;2023-05-29T08:49:05;6.63;;;3.88;;
32200;SDS011;18701;45.588;5.288;2023-05-29T08:51:34;10.18;;;3.63;;
32200;SDS011;18701;45.588;5.288;2023-05-29T08:54:04;9.30;;;4.22;;
32200;SDS011;18701;45.588;5.288;2023-05-29T08:56:31;9.10;;;3.72;;
32200;SDS011;18701;45.588;5.288;2023-05-29T08:58:57;13.80;;;3.88;;
32200;SDS011;18701;45.588;5.288;2023-05-29T09:01:23;11.30;;;4.22;;
32200;SDS011;18701;45.588;5.288;2023-05-29T09:03:50;8.05;;;3.38;;
32200;SDS011;18701;45.588;5.288;2023-05-29T09:06:16;7.40;;;4.00;;
32200;SDS011;18701;45.588;5.288;2023-05-29T09:08:43;11.40;;;3.95;;
32200;SDS011;18701;45.588;5.288;2023-05-29T09:11:09;8.88;;;3.83;;
32200;SDS011;18701;45.588;5.288;2023-05-29T09:13:35;8.13;;;4.35;;
32200;SDS011;18701;45.588;5.288;2023-05-29T09:16:00;6.93;;;3.92;;
32200;SDS011;18701;45.588;5.288;2023-05-29T09:18:29;7.85;;;3.55;;
32200;SDS011;18701;45.588;5.288;2023-05-29T09:20:56;5.82;;;3.47;;
32200;SDS011;18701;45.588;5.288;2023-05-29T09:23:22;6.70;;;3.53;;
32200;SDS011;18701;45.588;5.288;2023-05-29T09:25:50;8.88;;;3.58;;
32200;SDS011;18701;45.588;5.288;2023-05-29T09:28:19;8.77;;;3.42;;
32200;SDS011;18701;45.588;5.288;2023-05-29T09:30:46;8.02;;;4.00;;
32200;SDS011;18701;45.588;5.288;2023-05-29T09:33:13;10.18;;;3.80;;
32200;SDS011;18701;45.588;5.288;2023-05-29T09:35:40;8.20;;;3.88;;
32200;SDS011;18701;45.588;5.288;2023-05-29T09:38:09;9.25;;;3.67;;
32200;SDS011;18701;45.588;5.288;2023-05-29T09:40:37;7.72;;;3.78;;
32200;SDS011;18701;45.588;5.288;2023-05-29T09:45:36;7.50;;;3.95;;
32200;SDS011;18701;45.588;5.288;2023-05-29T09:48:03;12.07;;;3.90;;
32200;SDS011;18701;45.588;5.288;2023-05-29T09:50:30;7.20;;;3.28;;
32200;SDS011;18701;45.588;5.288;2023-05-29T09:52:58;11.68;;;3.47;;
32200;SDS011;18701;45.588;5.288;2023-05-29T09:55:26;9.50;;;3.40;;
32200;SDS011;18701;45.588;5.288;2023-05-29T09:57:53;7.40;;;3.35;;
32200;SDS011;18701;45.588;5.288;2023-05-29T10:00:20;14.27;;;3.33;;
32200;SDS011;18701;45.588;5.288;2023-05-29T10:02:47;10.40;;;3.90;;
32200;SDS011;18701;45.588;5.288;2023-05-29T10:05:13;4.80;;;3.13;;
32200;SDS011;18701;45.588;5.288;2023-05-29T10:07:44;7.45;;;3.53;;
32200;SDS011;18701;45.588;5.288;2023-05-29T10:10:17;10.35;;;3.75;;
32200;SDS011;18701;45.588;5.288;2023-05-29T10:12:49;6.82;;;3.38;;
32200;SDS011;18701;45.588;5.288;2023-05-29T10:15:16;8.52;;;3.60;;
32200;SDS011;18701;45.588;5.288;2023-05-29T10:17:52;9.15;;;3.80;;
32200;SDS011;18701;45.588;5.288;2023-05-29T10:20:22;9.48;;;3.67;;
32200;SDS011;18701;45.588;5.288;2023-05-29T10:22:49;5.25;;;3.00;;
32200;SDS011;18701;45.588;5.288;2023-05-29T10:25:20;7.90;;;3.13;;
32200;SDS011;18701;45.588;5.288;2023-05-29T10:27:49;8.43;;;3.38;;
32200;SDS011;18701;45.588;5.288;2023-05-29T10:30:17;8.38;;;4.03;;
32200;SDS011;18701;45.588;5.288;2023-05-29T10:33:06;8.20;;;4.00;;
32200;SDS011;18701;45.588;5.288;2023-05-29T10:35:46;9.65;;;4.05;;
32200;SDS011;18701;45.588;5.288;2023-05-29T10:38:13;6.75;;;3.40;;
32200;SDS011;18701;45.588;5.288;2023-05-29T10:40:41;7.40;;;3.80;;
32200;SDS011;18701;45.588;5.288;2023-05-29T10:43:08;6.20;;;3.45;;
32200;SDS011;18701;45.588;5.288;2023-05-29T10:50:36;5.57;;;3.50;;
32200;SDS011;18701;45.588;5.288;2023-05-29T10:53:06;9.10;;;3.40;;
32200;SDS011;18701;45.588;5.288;2023-05-29T10:55:35;11.55;;;3.80;;
32200;SDS011;18701;45.588;5.288;2023-05-29T10:58:05;6.97;;;3.80;;
32200;SDS011;18701;45.588;5.288;2023-05-29T11:00:31;9.75;;;3.08;;
32200;SDS011;18701;45.588;5.288;2023-05-29T11:03:00;11.48;;;4.03;;
32200;SDS011;18701;45.588;5.288;2023-05-29T11:05:31;9.75;;;4.35;;
32200;SDS011;18701;45.588;5.288;2023-05-29T11:07:58;6.93;;;3.40;;
32200;SDS011;18701;45.588;5.288;2023-05-29T11:13:51;4.90;;;3.03;;
32200;SDS011;18701;45.588;5.288;2023-05-29T11:18:50;8.30;;;3.67;;
32200;SDS011;18701;45.588;5.288;2023-05-29T11:24:00;6.65;;;3.08;;
32200;SDS011;18701;45.588;5.288;2023-05-29T11:26:31;8.38;;;3.67;;
32200;SDS011;18701;45.588;5.288;2023-05-29T11:28:58;11.38;;;3.33;;
32200;SDS011;18701;45.588;5.288;2023-05-29T11:31:25;5.75;;;3.72;;
32200;SDS011;18701;45.588;5.288;2023-05-29T11:33:53;10.93;;;4.03;;
32200;SDS011;18701;45.588;5.288;2023-05-29T11:36:23;5.07;;;3.45;;
32200;SDS011;18701;45.588;5.288;2023-05-29T11:38:51;6.20;;;3.75;;
32200;SDS011;18701;45.588;5.288;2023-05-29T11:41:17;7.13;;;3.70;;
32200;SDS011;18701;45.588;5.288;2023-05-29T11:43:43;5.18;;;3.22;;
32200;SDS011;18701;45.588;5.288;2023-05-29T11:46:15;11.85;;;4.25;;
32200;SDS011;18701;45.588;5.288;2023-05-29T11:48:45;7.07;;;3.72;;
32200;SDS011;18701;45.588;5.288;2023-05-29T11:51:11;6.20;;;3.90;;
32200;SDS011;18701;45.588;5.288;2023-05-29T11:53:40;5.97;;;3.65;;
32200;SDS011;18701;45.588;5.288;2023-05-29T11:56:09;11.07;;;3.78;;
32200;SDS011;18701;45.588;5.288;2023-05-29T11:58:39;6.22;;;3.75;;
32200;SDS011;18701;45.588;5.288;2023-05-29T12:01:08;4.50;;;3.23;;
32200;SDS011;18701;45.588;5.288;2023-05-29T12:03:40;11.70;;;3.90;;
32200;SDS011;18701;45.588;5.288;2023-05-29T12:06:07;6.20;;;3.57;;
32200;SDS011;18701;45.588;5.288;2023-05-29T12:08:35;4.68;;;3.00;;
32200;SDS011;18701;45.588;5.288;2023-05-29T12:11:02;6.32;;;4.25;;
32200;SDS011;18701;45.588;5.288;2023-05-29T12:13:27;7.65;;;3.90;;
32200;SDS011;18701;45.588;5.288;2023-05-29T12:15:55;9.52;;;3.38;;
32200;SDS011;18701;45.588;5.288;2023-05-29T12:18:24;8.95;;;3.25;;
32200;SDS011;18701;45.588;5.288;2023-05-29T12:20:50;8.23;;;4.22;;
32200;SDS011;18701;45.588;5.288;2023-05-29T12:23:17;7.28;;;3.42;;
32200;SDS011;18701;45.588;5.288;2023-05-29T12:25:47;6.82;;;3.30;;
32200;SDS011;18701;45.588;5.288;2023-05-29T12:28:17;6.53;;;3.53;;
32200;SDS011;18701;45.588;5.288;2023-05-29T12:30:44;7.22;;;3.25;;
32200;SDS011;18701;45.588;5.288;2023-05-29T12:33:30;7.72;;;3.20;;
32200;SDS011;18701;45.588;5.288;2023-05-29T12:36:00;7.65;;;3.50;;
32200;SDS011;18701;45.588;5.288;2023-05-29T12:38:31;8.60;;;3.95;;
32200;SDS011;18701;45.588;5.288;2023-05-29T12:40:57;7.03;;;4.03;;
32200;SDS011;18701;45.588;5.288;2023-05-29T12:43:22;11.52;;;3.65;;
32200;SDS011;18701;45.588;5.288;2023-05-29T12:45:53;9.38;;;3.38;;
32200;SDS011;18701;45.588;5.288;2023-05-29T12:48:21;7.95;;;3.05;;
32200;SDS011;18701;45.588;5.288;2023-05-29T12:50:52;6.50;;;4.05;;
32200;SDS011;18701;45.588;5.288;2023-05-29T12:53:17;6.63;;;3.38;;
32200;SDS011;18701;45.588;5.288;2023-05-29T12:55:44;6.50;;;2.88;;
32200;SDS011;18701;45.588;5.288;2023-05-29T12:58:12;10.10;;;3.58;;
32200;SDS011;18701;45.588;5.288;2023-05-29T13:00:39;6.07;;;2.95;;
32200;SDS011;18701;45.588;5.288;2023-05-29T13:03:06;4.75;;;3.38;;
32200;SDS011;18701;45.588;5.288;2023-05-29T13:05:32;12.05;;;4.40;;
32200;SDS011;18701;45.588;5.288;2023-05-29T13:07:58;7.53;;;3.55;;
32200;SDS011;18701;45.588;5.288;2023-05-29T13:10:25;7.20;;;3.80;;
32200;SDS011;18701;45.588;5.288;2023-05-29T13:12:52;11.18;;;3.85;;
32200;SDS011;18701;45.588;5.288;2023-05-29T13:15:24;7.22;;;3.47;;
32200;SDS011;18701;45.588;5.288;2023-05-29T13:17:50;11.63;;;4.07;;
32200;SDS011;18701;45.588;5.288;2023-05-29T13:20:17;6.60;;;3.75;;
32200;SDS011;18701;45.588;5.288;2023-05-29T13:22:43;8.02;;;3.38;;
32200;SDS011;18701;45.588;5.288;2023-05-29T13:25:11;10.38;;;3.30;;
32200;SDS011;18701;45.588;5.288;2023-05-29T13:27:40;7.95;;;3.25;;
32200;SDS011;18701;45.588;5.288;2023-05-29T13:30:07;7.68;;;3.63;;
32200;SDS011;18701;45.588;5.288;2023-05-29T13:32:33;6.80;;;3.45;;
32200;SDS011;18701;45.588;5.288;2023-05-29T13:34:59;9.18;;;3.75;;
32200;SDS011;18701;45.588;5.288;2023-05-29T13:37:25;9.88;;;3.60;;
32200;SDS011;18701;45.588;5.288;2023-05-29T13:39:52;5.95;;;3.30;;
32200;SDS011;18701;45.588;5.288;2023-05-29T13:42:18;5.10;;;3.22;;
32200;SDS011;18701;45.588;5.288;2023-05-29T13:44:45;8.40;;;3.20;;
32200;SDS011;18701;45.588;5.288;2023-05-29T13:47:11;7.18;;;3.75;;
32200;SDS011;18701;45.588;5.288;2023-05-29T13:49:37;10.05;;;3.58;;
32200;SDS011;18701;45.588;5.288;2023-05-29T13:52:04;5.88;;;3.47;;
32200;SDS011;18701;45.588;5.288;2023-05-29T13:54:30;5.68;;;2.83;;
32200;SDS011;18701;45.588;5.288;2023-05-29T13:57:00;6.90;;;3.35;;
32200;SDS011;18701;45.588;5.288;2023-05-29T13:59:27;8.52;;;3.55;;
32200;SDS011;18701;45.588;5.288;2023-05-29T14:01:52;11.20;;;3.70;;
32200;SDS011;18701;45.588;5.288;2023-05-29T14:04:18;6.57;;;3.20;;
32200;SDS011;18701;45.588;5.288;2023-05-29T14:06:43;6.18;;;3.85;;
32200;SDS011;18701;45.588;5.288;2023-05-29T14:09:10;5.55;;;3.75;;
32200;SDS011;18701;45.588;5.288;2023-05-29T14:11:36;7.80;;;3.72;;
32200;SDS011;18701;45.588;5.288;2023-05-29T14:14:02;14.15;;;3.42;;
32200;SDS011;18701;45.588;5.288;2023-05-29T14:16:29;6.78;;;3.50;;
32200;SDS011;18701;45.588;5.288;2023-05-29T14:18:55;7.00;;;3.83;;
32200;SDS011;18701;45.588;5.288;2023-05-29T14:21:21;11.50;;;3.78;;
32200;SDS011;18701;45.588;5.288;2023-05-29T14:23:46;5.85;;;2.90;;
32200;SDS011;18701;45.588;5.288;2023-05-29T14:26:12;17.85;;;3.58;;
32200;SDS011;18701;45.588;5.288;2023-05-29T14:28:38;6.28;;;3.25;;
32200;SDS011;18701;45.588;5.288;2023-05-29T14:31:06;7.55;;;3.53;;
32200;SDS011;18701;45.588;5.288;2023-05-29T14:33:32;14.48;;;3.95;;
32200;SDS011;18701;45.588;5.288;2023-05-29T14:35:58;7.32;;;3.45;;
32200;SDS011;18701;45.588;5.288;2023-05-29T14:38:24;4.50;;;3.30;;
32200;SDS011;18701;45.588;5.288;2023-05-29T14:40:50;6.75;;;3.72;;
32200;SDS011;18701;45.588;5.288;2023-05-29T14:43:16;9.48;;;3.38;;
32200;SDS011;18701;45.588;5.288;2023-05-29T14:45:42;8.75;;;3.65;;
32200;SDS011;18701;45.588;5.288;2023-05-29T14:48:08;4.65;;;3.47;;
32200;SDS011;18701;45.588;5.288;2023-05-29T14:50:34;7.45;;;3.80;;
32200;SDS011;18701;45.588;5.288;2023-05-29T14:53:00;6.88;;;3.00;;
32200;SDS011;18701;45.588;5.288;2023-05-29T14:55:26;6.60;;;3.22;;
32200;SDS011;18701;45.588;5.288;2023-05-29T14:57:51;8.57;;;3.63;;
32200;SDS011;18701;45.588;5.288;2023-05-29T15:00:17;7.13;;;3.42;;
32200;SDS011;18701;45.588;5.288;2023-05-29T15:02:43;6.95;;;3.53;;
32200;SDS011;18701;45.588;5.288;2023-05-29T15:05:09;9.25;;;3.80;;
32200;SDS011;18701;45.588;5.288;2023-05-29T15:07:35;4.55;;;3.33;;
32200;SDS011;18701;45.588;5.288;2023-05-29T15:10:01;6.70;;;4.10;;